createdAt,value
2023-03-05T00:02:07.150Z,98804.44
2023-03-05T00:04:35.468Z,98801.06
2023-03-05T00:07:01.936Z,98805.81
2023-03-05T00:09:28.352Z,98801.25
2023-03-05T00:11:54.782Z,98797.38
2023-03-05T00:14:21.190Z,98800.00
2023-03-05T00:16:48.008Z,98805.53
2023-03-05T00:19:14.543Z,98794.19
2023-03-05T00:21:42.236Z,98798.22
2023-03-05T00:24:13.134Z,98803.59
2023-03-05T00:26:39.788Z,98794.00
2023-03-05T00:29:08.103Z,98796.53
2023-03-05T00:31:36.140Z,98789.97
2023-03-05T00:34:07.126Z,98791.25
2023-03-05T00:36:36.885Z,98792.09
2023-03-05T00:39:03.673Z,98793.88
2023-03-05T00:41:30.235Z,98789.28
2023-03-05T00:43:56.850Z,98793.59
2023-03-05T00:46:24.303Z,98791.56
2023-03-05T00:48:53.380Z,98786.91
2023-03-05T00:51:23.554Z,98771.63
2023-03-05T00:53:50.038Z,98770.78
2023-03-05T00:56:16.750Z,98779.22
2023-03-05T00:58:43.156Z,98778.31
2023-03-05T01:01:09.826Z,98777.00
2023-03-05T01:03:36.357Z,98772.81
2023-03-05T01:06:08.193Z,98777.66
2023-03-05T01:08:35.884Z,98770.56
2023-03-05T01:11:03.336Z,98761.94
2023-03-05T01:13:29.992Z,98758.22
2023-03-05T01:15:56.514Z,98749.91
2023-03-05T01:18:23.032Z,98748.94
2023-03-05T01:20:49.501Z,98754.13
2023-03-05T01:23:15.920Z,98748.00
2023-03-05T01:25:42.503Z,98743.56
2023-03-05T01:28:09.161Z,98744.09
2023-03-05T01:30:35.612Z,98736.94
2023-03-05T01:33:02.341Z,98737.84
2023-03-05T01:35:28.883Z,98737.66
2023-03-05T01:37:56.194Z,98735.88
2023-03-05T01:40:28.052Z,98728.69
2023-03-05T01:43:23.171Z,98713.47
2023-03-05T01:46:28.424Z,98719.94
2023-03-05T01:49:19.556Z,98714.38
2023-03-05T01:51:49.993Z,98712.88
2023-03-05T01:54:19.326Z,98709.63
2023-03-05T01:56:48.929Z,98712.56
2023-03-05T01:59:16.591Z,98714.03
2023-03-05T02:01:46.187Z,98714.03
2023-03-05T02:04:16.978Z,98709.91
2023-03-05T02:06:43.874Z,98703.66
2023-03-05T02:09:10.378Z,98704.22
2023-03-05T02:11:37.315Z,98697.34
2023-03-05T02:14:04.984Z,98698.94
2023-03-05T02:16:36.780Z,98694.72
2023-03-05T02:19:09.969Z,98694.59
2023-03-05T02:21:48.814Z,98695.63
2023-03-05T02:24:18.099Z,98688.06
2023-03-05T02:26:46.678Z,98690.59
2023-03-05T02:29:19.164Z,98697.00
2023-03-05T02:31:45.797Z,98685.88
2023-03-05T02:34:12.241Z,98683.41
2023-03-05T02:36:38.669Z,98686.13
2023-03-05T02:39:05.255Z,98684.78
2023-03-05T02:41:31.790Z,98684.69
2023-03-05T02:43:58.267Z,98683.22
2023-03-05T02:46:24.618Z,98687.72
2023-03-05T02:48:51.191Z,98686.69
2023-03-05T02:51:17.910Z,98686.91
2023-03-05T02:53:44.285Z,98692.19
2023-03-05T02:56:10.842Z,98693.47
2023-03-05T02:58:37.256Z,98686.94
2023-03-05T03:01:04.064Z,98686.72
2023-03-05T03:03:30.587Z,98679.97
2023-03-05T03:05:57.056Z,98680.16
2023-03-05T03:08:23.469Z,98684.94
2023-03-05T03:10:49.968Z,98673.63
2023-03-05T03:13:16.428Z,98673.44
2023-03-05T03:15:42.881Z,98681.66
2023-03-05T03:18:09.507Z,98673.31
2023-03-05T03:20:39.167Z,98673.44
2023-03-05T03:23:06.733Z,98674.06
2023-03-05T03:25:33.453Z,98673.56
2023-03-05T03:27:59.873Z,98664.47
2023-03-05T03:30:26.503Z,98670.69
2023-03-05T03:32:53.038Z,98666.25
2023-03-05T03:35:19.608Z,98661.41
2023-03-05T03:37:47.262Z,98660.16
2023-03-05T03:40:13.851Z,98654.03
2023-03-05T03:42:40.301Z,98653.81
2023-03-05T03:45:07.334Z,98657.94
2023-03-05T03:47:33.736Z,98659.09
2023-03-05T03:50:00.223Z,98660.75
2023-03-05T03:52:26.979Z,98662.66
2023-03-05T03:54:55.585Z,98658.03
2023-03-05T03:57:21.987Z,98660.56
2023-03-05T03:59:50.196Z,98658.97
2023-03-05T04:02:16.965Z,98655.19
2023-03-05T04:04:43.394Z,98658.47
2023-03-05T04:07:10.049Z,98649.78
2023-03-05T04:09:36.482Z,98656.31
2023-03-05T04:12:03.234Z,98651.47
2023-03-05T04:14:29.627Z,98647.69
2023-03-05T04:16:56.086Z,98643.78
2023-03-05T04:19:22.487Z,98638.09
2023-03-05T04:21:48.933Z,98635.34
2023-03-05T04:24:15.341Z,98630.38
2023-03-05T04:26:41.839Z,98634.22
2023-03-05T04:29:08.237Z,98625.34
2023-03-05T04:31:34.679Z,98622.81
2023-03-05T04:34:01.121Z,98624.50
2023-03-05T04:36:27.633Z,98619.25
2023-03-05T04:38:54.048Z,98613.75
2023-03-05T04:41:20.573Z,98604.03
2023-03-05T04:43:46.932Z,98599.53
2023-03-05T04:46:13.353Z,98598.69
2023-03-05T04:48:39.767Z,98589.16
2023-03-05T04:51:06.336Z,98599.56
2023-03-05T04:53:32.770Z,98593.88
2023-03-05T04:56:01.379Z,98586.09
2023-03-05T04:58:28.165Z,98594.00
2023-03-05T05:00:54.581Z,98586.13
2023-03-05T05:03:21.009Z,98591.69
2023-03-05T05:05:54.353Z,98586.53
2023-03-05T05:08:20.714Z,98578.06
2023-03-05T05:10:58.541Z,98582.91
2023-03-05T05:13:25.856Z,98578.84
2023-03-05T05:15:52.516Z,98577.00
2023-03-05T05:18:19.654Z,98580.97
2023-03-05T05:20:46.186Z,98583.00
2023-03-05T05:23:13.098Z,98572.06
2023-03-05T05:25:39.544Z,98573.97
2023-03-05T05:28:06.026Z,98575.59
2023-03-05T05:30:32.469Z,98570.81
2023-03-05T05:32:58.941Z,98565.16
2023-03-05T05:35:25.442Z,98572.91
2023-03-05T05:37:51.993Z,98565.75
2023-03-05T05:40:18.530Z,98567.25
2023-03-05T05:42:45.340Z,98572.22
2023-03-05T05:45:12.432Z,98571.47
2023-03-05T05:47:39.261Z,98571.25
2023-03-05T05:50:06.163Z,98567.34
2023-03-05T05:52:32.632Z,98570.59
2023-03-05T05:54:59.113Z,98564.19
2023-03-05T05:57:25.570Z,98574.44
2023-03-05T05:59:52.006Z,98565.03
2023-03-05T06:02:18.546Z,98566.53
2023-03-05T06:04:45.085Z,98565.34
2023-03-05T06:07:11.451Z,98566.13
2023-03-05T06:09:37.896Z,98564.72
2023-03-05T06:12:04.794Z,98566.53
2023-03-05T06:14:31.245Z,98571.16
2023-03-05T06:16:57.688Z,98571.28
2023-03-05T06:19:24.253Z,98562.09
2023-03-05T06:21:50.622Z,98562.72
2023-03-05T06:24:19.260Z,98560.09
2023-03-05T06:26:46.709Z,98557.88
2023-03-05T06:29:13.480Z,98558.63
2023-03-05T06:31:40.196Z,98562.63
2023-03-05T06:34:06.765Z,98561.81
2023-03-05T06:36:33.320Z,98561.25
2023-03-05T06:38:59.810Z,98552.81
2023-03-05T06:41:29.291Z,98560.63
2023-03-05T06:43:56.453Z,98564.94
2023-03-05T06:46:28.557Z,98564.84
2023-03-05T06:48:57.205Z,98571.06
2023-03-05T06:51:30.003Z,98569.59
2023-03-05T06:54:00.971Z,98570.41
2023-03-05T06:56:27.716Z,98571.78
2023-03-05T06:58:54.347Z,98577.06
2023-03-05T07:01:21.304Z,98585.09
2023-03-05T07:03:52.898Z,98572.09
2023-03-05T07:06:20.374Z,98575.81
2023-03-05T07:08:47.404Z,98572.44
2023-03-05T07:11:17.037Z,98573.69
2023-03-05T07:13:43.897Z,98575.47
2023-03-05T07:16:14.657Z,98576.31
2023-03-05T07:18:41.320Z,98576.94
2023-03-05T07:21:09.035Z,98572.31
2023-03-05T07:23:36.636Z,98576.50
2023-03-05T07:26:05.172Z,98571.13
2023-03-05T07:28:32.786Z,98580.63
2023-03-05T07:31:02.531Z,98576.72
2023-03-05T07:33:29.261Z,98575.88
2023-03-05T07:35:56.159Z,98581.25
2023-03-05T07:38:22.843Z,98571.50
2023-03-05T07:40:50.238Z,98572.47
2023-03-05T07:43:17.407Z,98567.84
2023-03-05T07:45:45.352Z,98567.72
2023-03-05T07:48:18.117Z,98573.34
2023-03-05T07:50:44.613Z,98568.34
2023-03-05T07:53:11.133Z,98567.09
2023-03-05T07:55:47.050Z,98560.66
2023-03-05T07:58:14.435Z,98563.38
2023-03-05T08:00:41.464Z,98567.72
2023-03-05T08:03:07.932Z,98559.19
2023-03-05T08:05:34.424Z,98552.94
2023-03-05T08:08:00.875Z,98558.84
2023-03-05T08:10:27.405Z,98563.94
2023-03-05T08:12:53.948Z,98559.78
2023-03-05T08:15:20.411Z,98556.03
2023-03-05T08:17:46.895Z,98552.78
2023-03-05T08:20:13.776Z,98543.03
2023-03-05T08:22:40.299Z,98541.41
2023-03-05T08:25:07.833Z,98540.69
2023-03-05T08:27:38.533Z,98540.56
2023-03-05T08:30:05.420Z,98537.06
2023-03-05T08:32:32.108Z,98536.38
2023-03-05T08:34:58.869Z,98533.78
2023-03-05T08:37:25.664Z,98527.16
2023-03-05T08:39:52.510Z,98527.53
2023-03-05T08:42:19.170Z,98529.19
2023-03-05T08:44:45.750Z,98530.78
2023-03-05T08:47:12.274Z,98519.59
2023-03-05T08:49:38.719Z,98519.19
2023-03-05T08:52:05.472Z,98519.56
2023-03-05T08:54:33.547Z,98523.03
2023-03-05T08:57:00.019Z,98516.09
2023-03-05T08:59:26.531Z,98511.97
2023-03-05T09:01:53.072Z,98507.25
2023-03-05T09:04:19.551Z,98510.81
2023-03-05T09:06:46.088Z,98508.31
2023-03-05T09:09:13.649Z,98503.56
2023-03-05T09:11:40.100Z,98512.53
2023-03-05T09:14:07.055Z,98509.81
2023-03-05T09:16:33.774Z,98510.66
2023-03-05T09:19:00.243Z,98503.44
2023-03-05T09:21:26.640Z,98509.97
2023-03-05T09:23:53.141Z,98501.84
2023-03-05T09:26:20.204Z,98492.91
2023-03-05T09:28:47.459Z,98498.28
2023-03-05T09:31:14.174Z,98494.50
2023-03-05T09:33:40.835Z,98499.22
2023-03-05T09:36:19.084Z,98490.06
2023-03-05T09:38:45.539Z,98494.78
2023-03-05T09:41:37.906Z,98491.72
2023-03-05T09:44:22.300Z,98496.59
2023-03-05T09:47:05.365Z,98489.03
2023-03-05T09:49:40.500Z,98475.53
2023-03-05T09:52:16.556Z,98483.75
2023-03-05T09:54:48.131Z,98485.91
2023-03-05T09:57:23.850Z,98488.81
2023-03-05T10:00:01.017Z,98481.97
2023-03-05T10:02:36.738Z,98484.25
2023-03-05T10:05:16.022Z,98478.84
2023-03-05T10:07:45.870Z,98480.28
2023-03-05T10:10:18.085Z,98480.63
2023-03-05T10:12:48.688Z,98471.38
2023-03-05T10:15:21.203Z,98479.78
2023-03-05T10:18:14.140Z,98478.69
2023-03-05T10:21:18.209Z,98470.53
2023-03-05T10:23:56.743Z,98478.25
2023-03-05T10:26:41.729Z,98471.34
2023-03-05T10:29:23.161Z,98464.78
2023-03-05T10:31:58.534Z,98463.69
2023-03-05T10:34:46.830Z,98449.72
2023-03-05T10:37:27.568Z,98454.56
2023-03-05T10:40:09.727Z,98455.28
2023-03-05T10:42:54.670Z,98442.03
2023-03-05T10:45:34.797Z,98442.91
2023-03-05T10:48:39.166Z,98439.09
2023-03-05T10:51:33.177Z,98424.81
2023-03-05T10:54:09.823Z,98420.88
2023-03-05T10:56:37.122Z,98421.88
2023-03-05T10:59:03.606Z,98411.13
2023-03-05T11:01:31.700Z,98413.56
2023-03-05T11:04:05.478Z,98405.25
2023-03-05T11:06:41.308Z,98400.88
2023-03-05T11:09:29.285Z,98399.31
2023-03-05T11:12:15.917Z,98398.22
2023-03-05T11:15:05.563Z,98388.63
2023-03-05T11:17:38.304Z,98400.97
2023-03-05T11:20:26.357Z,98389.66
2023-03-05T11:23:23.649Z,98391.00
2023-03-05T11:25:55.169Z,98384.66
2023-03-05T11:28:32.865Z,98384.97
2023-03-05T11:31:21.520Z,98382.66
2023-03-05T11:34:06.608Z,98387.69
2023-03-05T11:36:35.610Z,98370.28
2023-03-05T11:39:07.951Z,98373.69
2023-03-05T11:41:42.184Z,98376.28
2023-03-05T11:44:16.321Z,98366.84
2023-03-05T11:46:56.199Z,98370.38
2023-03-05T11:49:27.933Z,98366.34
2023-03-05T11:52:18.254Z,98354.00
2023-03-05T11:55:00.846Z,98351.13
2023-03-05T11:57:33.576Z,98350.78
2023-03-05T12:00:04.670Z,98354.06
2023-03-05T12:02:31.448Z,98354.38
2023-03-05T12:04:59.429Z,98344.88
2023-03-05T12:07:35.857Z,98339.25
2023-03-05T12:10:03.718Z,98337.78
2023-03-05T12:12:39.592Z,98328.78
2023-03-05T12:15:12.033Z,98325.41
2023-03-05T12:17:49.171Z,98319.03
2023-03-05T12:20:46.624Z,98315.41
2023-03-05T12:23:20.005Z,98321.94
2023-03-05T12:25:46.832Z,98306.41
2023-03-05T12:28:36.303Z,98307.69
2023-03-05T12:31:08.810Z,98309.13
2023-03-05T12:33:43.719Z,98312.22
2023-03-05T12:36:34.012Z,98304.38
2023-03-05T12:39:00.680Z,98303.16
2023-03-05T12:41:31.043Z,98296.91
2023-03-05T12:44:04.919Z,98296.63
2023-03-05T12:46:45.588Z,98300.44
2023-03-05T12:49:18.085Z,98295.09
2023-03-05T12:51:46.751Z,98286.69
2023-03-05T12:54:31.555Z,98283.66
2023-03-05T12:57:02.410Z,98286.84
2023-03-05T13:00:22.514Z,98280.09
2023-03-05T13:02:56.132Z,98278.06
2023-03-05T13:05:35.822Z,98272.41
2023-03-05T13:08:23.562Z,98264.44
2023-03-05T13:10:56.904Z,98265.88
2023-03-05T13:13:26.416Z,98262.53
2023-03-05T13:15:53.422Z,98255.13
2023-03-05T13:18:28.345Z,98259.72
2023-03-05T13:21:25.135Z,98244.69
2023-03-05T13:23:58.169Z,98244.25
2023-03-05T13:26:38.956Z,98235.75
2023-03-05T13:29:19.787Z,98240.50
2023-03-05T13:31:46.230Z,98234.44
2023-03-05T13:34:44.559Z,98230.69
2023-03-05T13:37:24.554Z,98227.06
2023-03-05T13:40:01.039Z,98228.72
2023-03-05T13:42:32.264Z,98229.84
2023-03-05T13:45:06.792Z,98228.56
2023-03-05T13:47:35.606Z,98225.53
2023-03-05T13:50:06.830Z,98223.84
2023-03-05T13:52:38.677Z,98218.94
2023-03-05T13:55:14.651Z,98221.75
2023-03-05T13:57:44.175Z,98214.53
2023-03-05T14:00:38.778Z,98211.38
2023-03-05T14:03:22.248Z,98204.00
2023-03-05T14:05:49.973Z,98196.84
2023-03-05T14:08:25.462Z,98201.00
2023-03-05T14:10:54.268Z,98197.97
2023-03-05T14:13:27.714Z,98187.66
2023-03-05T14:16:12.690Z,98195.78
2023-03-05T14:18:52.393Z,98188.63
2023-03-05T14:21:19.103Z,98187.31
2023-03-05T14:23:48.266Z,98181.53
2023-03-05T14:26:36.537Z,98183.59
2023-03-05T14:29:14.702Z,98182.81
2023-03-05T14:31:54.985Z,98189.53
2023-03-05T14:34:35.282Z,98186.09
2023-03-05T14:37:15.770Z,98177.09
2023-03-05T14:39:52.164Z,98175.69
2023-03-05T14:42:30.332Z,98165.78
2023-03-05T14:45:00.254Z,98166.75
2023-03-05T14:47:27.725Z,98157.03
2023-03-05T14:49:54.464Z,98161.66
2023-03-05T14:52:23.814Z,98153.78
2023-03-05T14:54:51.896Z,98152.91
2023-03-05T14:57:25.122Z,98146.81
2023-03-05T14:59:51.574Z,98147.31
2023-03-05T15:02:20.829Z,98145.66
2023-03-05T15:04:47.741Z,98146.56
2023-03-05T15:07:29.129Z,98133.53
2023-03-05T15:09:56.170Z,98138.94
2023-03-05T15:12:25.845Z,98126.09
2023-03-05T15:14:53.657Z,98124.25
2023-03-05T15:17:43.070Z,98120.84
2023-03-05T15:20:16.028Z,98116.50
2023-03-05T15:22:42.423Z,98108.09
2023-03-05T15:25:10.774Z,98115.56
2023-03-05T15:27:37.673Z,98110.25
2023-03-05T15:30:06.502Z,98106.31
2023-03-05T15:32:33.314Z,98098.34
2023-03-05T15:35:00.292Z,98090.63
2023-03-05T15:37:26.999Z,98090.44
2023-03-05T15:39:53.457Z,98094.56
2023-03-05T15:42:19.942Z,98086.78
2023-03-05T15:44:46.358Z,98081.38
2023-03-05T15:47:12.963Z,98074.47
2023-03-05T15:49:39.416Z,98082.84
2023-03-05T15:52:05.849Z,98083.94
2023-03-05T15:54:32.251Z,98076.53
2023-03-05T15:56:58.650Z,98079.06
2023-03-05T15:59:25.196Z,98077.34
2023-03-05T16:01:51.934Z,98071.63
2023-03-05T16:04:18.708Z,98071.31
2023-03-05T16:06:49.451Z,98074.03
2023-03-05T16:09:17.483Z,98052.38
2023-03-05T16:11:47.828Z,98050.44
2023-03-05T16:14:17.414Z,98057.72
2023-03-05T16:16:44.597Z,98050.31
2023-03-05T16:19:14.182Z,98053.75
2023-03-05T16:21:40.717Z,98040.88
2023-03-05T16:24:07.391Z,98046.03
2023-03-05T16:26:38.428Z,98040.38
2023-03-05T16:29:05.461Z,98043.47
2023-03-05T16:31:34.078Z,98049.84
2023-03-05T16:34:01.532Z,98042.16
2023-03-05T16:36:30.310Z,98040.47
2023-03-05T16:38:58.850Z,98031.97
2023-03-05T16:41:26.373Z,98029.56
2023-03-05T16:43:54.034Z,98038.19
2023-03-05T16:46:21.073Z,98032.31
2023-03-05T16:48:47.694Z,98037.34
2023-03-05T16:51:14.182Z,98025.63
2023-03-05T16:53:41.352Z,98036.78
2023-03-05T16:56:09.390Z,98032.91
2023-03-05T16:58:37.829Z,98033.75
2023-03-05T17:01:10.504Z,98035.78
2023-03-05T17:03:38.868Z,98031.06
2023-03-05T17:06:16.612Z,98040.31
2023-03-05T17:08:44.432Z,98035.03
2023-03-05T17:11:12.432Z,98034.34
2023-03-05T17:13:39.798Z,98031.44
2023-03-05T17:16:08.196Z,98029.31
2023-03-05T17:18:35.139Z,98033.16
2023-03-05T17:21:02.892Z,98027.91
2023-03-05T17:23:29.588Z,98031.16
2023-03-05T17:25:56.063Z,98032.56
2023-03-05T17:28:22.882Z,98026.94
2023-03-05T17:30:49.270Z,98033.66
2023-03-05T17:33:15.770Z,98018.44
2023-03-05T17:35:47.180Z,98026.84
2023-03-05T17:38:14.767Z,98029.69
2023-03-05T17:40:41.446Z,98026.72
2023-03-05T17:43:07.903Z,98024.06
2023-03-05T17:45:35.343Z,98027.19
2023-03-05T17:48:02.398Z,98022.41
2023-03-05T17:50:28.832Z,98029.56
2023-03-05T17:52:55.301Z,98033.88
2023-03-05T17:55:23.989Z,98032.94
2023-03-05T17:57:50.537Z,98025.38
2023-03-05T18:00:20.351Z,98018.44
2023-03-05T18:02:46.982Z,98022.41
2023-03-05T18:05:14.073Z,98020.59
2023-03-05T18:07:40.597Z,98020.25
2023-03-05T18:10:07.933Z,98017.25
2023-03-05T18:12:34.507Z,98006.09
2023-03-05T18:15:01.000Z,98011.63
2023-03-05T18:17:27.449Z,98009.09
2023-03-05T18:19:53.878Z,98000.97
2023-03-05T18:22:20.403Z,98002.28
2023-03-05T18:24:46.834Z,97996.28
2023-03-05T18:27:13.411Z,97997.72
2023-03-05T18:29:39.845Z,97999.63
2023-03-05T18:32:06.391Z,98005.38
2023-03-05T18:34:32.870Z,97980.13
2023-03-05T18:37:00.740Z,97993.88
2023-03-05T18:39:33.297Z,97986.47
2023-03-05T18:42:00.153Z,97989.44
2023-03-05T18:44:26.931Z,97989.34
2023-03-05T18:46:53.658Z,97986.22
2023-03-05T18:49:20.141Z,97986.44
2023-03-05T18:51:47.131Z,97981.19
2023-03-05T18:54:13.574Z,97980.94
2023-03-05T18:56:40.086Z,97979.97
2023-03-05T18:59:06.530Z,97966.88
2023-03-05T19:01:32.987Z,97968.09
2023-03-05T19:03:59.472Z,97966.81
2023-03-05T19:06:26.006Z,97982.63
2023-03-05T19:08:57.235Z,97973.38
2023-03-05T19:11:24.272Z,97972.22
2023-03-05T19:13:51.521Z,97966.84
2023-03-05T19:16:21.174Z,97973.78
2023-03-05T19:19:06.677Z,97966.22
2023-03-05T19:21:33.207Z,97968.00
2023-03-05T19:23:59.635Z,97971.59
2023-03-05T19:26:26.053Z,97962.16
2023-03-05T19:28:52.454Z,97960.50
2023-03-05T19:31:19.036Z,97961.78
2023-03-05T19:33:45.464Z,97956.06
2023-03-05T19:36:12.943Z,97959.25
2023-03-05T19:38:39.513Z,97946.22
2023-03-05T19:41:08.852Z,97948.16
2023-03-05T19:43:35.680Z,97944.22
2023-03-05T19:46:04.449Z,97947.91
2023-03-05T19:48:31.990Z,97951.28
2023-03-05T19:50:59.066Z,97946.22
2023-03-05T19:53:26.186Z,97944.09
2023-03-05T19:55:52.824Z,97944.78
2023-03-05T19:58:19.311Z,97946.94
2023-03-05T20:00:45.788Z,97934.38
2023-03-05T20:03:12.534Z,97936.91
2023-03-05T20:05:40.956Z,97937.72
2023-03-05T20:08:07.396Z,97930.09
2023-03-05T20:10:34.006Z,97930.88
2023-03-05T20:13:00.457Z,97929.31
2023-03-05T20:15:29.599Z,97921.06
2023-03-05T20:17:57.346Z,97929.81
2023-03-05T20:20:24.526Z,97919.78
2023-03-05T20:22:51.108Z,97915.34
2023-03-05T20:25:18.049Z,97916.91
2023-03-05T20:27:44.494Z,97916.19
2023-03-05T20:30:15.732Z,97925.06
2023-03-05T20:32:42.258Z,97918.25
2023-03-05T20:35:12.523Z,97915.59
2023-03-05T20:37:49.283Z,97918.19
2023-03-05T20:40:17.137Z,97916.53
2023-03-05T20:42:43.766Z,97915.59
2023-03-05T20:45:10.747Z,97910.47
2023-03-05T20:47:46.034Z,97913.59
2023-03-05T20:50:14.471Z,97911.88
2023-03-05T20:52:41.153Z,97904.72
2023-03-05T20:55:08.618Z,97901.13
2023-03-05T20:57:35.196Z,97899.56
2023-03-05T21:00:03.435Z,97897.31
2023-03-05T21:02:30.509Z,97891.44
2023-03-05T21:04:56.900Z,97886.78
2023-03-05T21:07:24.743Z,97889.63
2023-03-05T21:09:51.162Z,97886.63
2023-03-05T21:12:17.556Z,97879.56
2023-03-05T21:14:43.939Z,97878.75
2023-03-05T21:17:10.423Z,97880.66
2023-03-05T21:19:39.037Z,97879.31
2023-03-05T21:22:05.608Z,97878.00
2023-03-05T21:24:42.900Z,97880.28
2023-03-05T21:27:09.752Z,97872.03
2023-03-05T21:29:36.135Z,97865.22
2023-03-05T21:32:02.816Z,97868.81
2023-03-05T21:34:29.243Z,97856.25
2023-03-05T21:36:55.677Z,97863.09
2023-03-05T21:39:22.065Z,97857.69
2023-03-05T21:41:48.495Z,97847.78
2023-03-05T21:44:17.637Z,97843.47
2023-03-05T21:46:44.151Z,97844.03
2023-03-05T21:49:10.725Z,97828.97
2023-03-05T21:51:48.865Z,97829.34
2023-03-05T21:54:15.262Z,97827.06
2023-03-05T21:56:41.669Z,97835.22
2023-03-05T21:59:08.145Z,97831.00
2023-03-05T22:01:34.757Z,97825.63
2023-03-05T22:04:01.120Z,97815.09
2023-03-05T22:06:27.620Z,97806.34
2023-03-05T22:08:54.037Z,97802.06
2023-03-05T22:11:21.092Z,97800.97
2023-03-05T22:13:47.901Z,97793.69
2023-03-05T22:16:24.599Z,97792.84
2023-03-05T22:18:51.759Z,97781.84
2023-03-05T22:21:21.928Z,97773.72
2023-03-05T22:23:49.714Z,97769.16
2023-03-05T22:26:16.350Z,97771.59
2023-03-05T22:28:42.812Z,97766.09
2023-03-05T22:31:09.945Z,97777.44
2023-03-05T22:33:36.649Z,97757.94
2023-03-05T22:36:10.573Z,97758.44
2023-03-05T22:38:37.030Z,97750.41
2023-03-05T22:41:08.725Z,97756.41
2023-03-05T22:43:35.412Z,97751.59
2023-03-05T22:46:09.488Z,97748.38
2023-03-05T22:48:35.963Z,97748.03
2023-03-05T22:51:02.453Z,97742.41
2023-03-05T22:53:28.891Z,97739.75
2023-03-05T22:55:55.303Z,97736.28
2023-03-05T22:58:21.714Z,97729.00
2023-03-05T23:00:48.714Z,97735.22
2023-03-05T23:03:15.785Z,97729.72
2023-03-05T23:05:42.395Z,97729.25
2023-03-05T23:08:09.266Z,97721.59
2023-03-05T23:10:35.840Z,97724.00
2023-03-05T23:13:02.364Z,97711.56
2023-03-05T23:15:34.965Z,97713.94
2023-03-05T23:18:01.855Z,97715.97
2023-03-05T23:20:31.526Z,97707.13
2023-03-05T23:22:58.687Z,97710.00
2023-03-05T23:25:28.623Z,97704.72
2023-03-05T23:27:57.931Z,97715.38
2023-03-05T23:30:32.135Z,97704.13
2023-03-05T23:33:03.947Z,97697.63
2023-03-05T23:35:33.247Z,97697.50
2023-03-05T23:38:03.682Z,97700.41
2023-03-05T23:40:33.264Z,97694.97
2023-03-05T23:43:00.268Z,97696.06
2023-03-05T23:45:28.103Z,97692.56
2023-03-05T23:47:54.770Z,97698.91
2023-03-05T23:50:27.606Z,97692.94
2023-03-05T23:52:54.400Z,97687.28
2023-03-05T23:55:23.899Z,97675.69
2023-03-05T23:57:50.933Z,97683.94
